Time;durP1;ratioP1;P1;durP2;ratioP2;P2;SDS_P1;SDS_P2;PMS_P1;PMS_P2;Temp;Humidity;BMP_temperature;BMP_pressure;BME280_temperature;BME280_humidity;BME280_pressure;Samples;Min_cycle;Max_cycle;Signal;HPM_P1;HPM_P2
2022/12/22 03:28:24;;;;;;;;;;;;;;;18.14;36.55;95214.59;10406110;28;4955;-48
2022/12/22 03:33:24;;;;;;;;;;;;;;;18.16;36.50;95207.25;10404205;28;2831;-45
2022/12/22 03:38:25;;;;;;;;;;;;;;;18.11;36.46;95208.06;10395372;28;2872;-48
2022/12/22 03:49:08;;;;;;;;;;;;;;;18.09;36.57;95198.91;10400970;28;2838;-47
2022/12/22 03:54:04;;;;;;;;;;;;;;;18.10;36.56;95195.22;10394721;28;2823;-46
2022/12/22 03:59:05;;;;;;;;;;;;;;;18.07;36.52;95201.00;10403870;28;2422;-46
2022/12/22 04:04:05;;;;;;;;;;;;;;;18.05;36.59;95203.13;10401735;28;2874;-46
2022/12/22 04:09:05;;;;;;;;;;;;;;;18.07;36.51;95190.53;10401809;28;3026;-48
2022/12/22 04:14:06;;;;;;;;;;;;;;;18.04;36.49;95183.19;10395682;28;2893;-49
2022/12/22 04:19:06;;;;;;;;;;;;;;;18.06;36.46;95186.31;10392137;28;2871;-46
2022/12/22 04:24:07;;;;;;;;;;;;;;;18.02;36.46;95174.81;10398432;28;3311;-48
2022/12/22 04:29:07;;;;;;;;;;;;;;;18.02;36.58;95167.72;10394044;28;4940;-46
2022/12/22 04:34:07;;;;;;;;;;;;;;;18.02;36.51;95177.41;10390727;28;2512;-47
2022/12/22 04:39:07;;;;;;;;;;;;;;;17.97;36.63;95182.72;10406121;28;2441;-46
2022/12/22 04:44:08;;;;;;;;;;;;;;;17.97;36.38;95187.94;10388481;28;2763;-50
2022/12/22 04:49:08;;;;;;;;;;;;;;;17.95;36.51;95180.34;10401054;28;2865;-48
2022/12/22 04:54:08;;;;;;;;;;;;;;;17.93;36.51;95179.81;10383587;28;2823;-46
2022/12/22 04:59:09;;;;;;;;;;;;;;;17.94;36.55;95178.00;10397462;28;2816;-46
2022/12/22 05:04:09;;;;;;;;;;;;;;;17.93;36.45;95168.56;10392377;28;2426;-48
2022/12/22 05:09:10;;;;;;;;;;;;;;;17.91;36.57;95162.81;10390783;28;2904;-47
2022/12/22 05:14:15;;;;;;;;;;;;;;;17.89;36.59;95161.22;10391927;28;2371;-48
2022/12/22 05:19:16;;;;;;;;;;;;;;;17.91;36.49;95147.09;10389356;28;2895;-45
2022/12/22 05:24:16;;;;;;;;;;;;;;;17.88;36.44;95141.31;10390823;28;2909;-47
2022/12/22 05:29:16;;;;;;;;;;;;;;;17.87;36.50;95137.13;10403438;28;4947;-45
2022/12/22 05:34:16;;;;;;;;;;;;;;;17.87;36.54;95131.09;10404691;28;2480;-48
2022/12/22 05:39:19;;;;;;;;;;;;;;;17.87;36.50;95134.50;10412609;28;2876;-48
2022/12/22 05:44:19;;;;;;;;;;;;;;;17.87;36.53;95134.50;10398369;28;2855;-48
2022/12/22 05:49:22;;;;;;;;;;;;;;;17.85;36.41;95131.38;10410541;28;2354;-48
2022/12/22 05:54:22;;;;;;;;;;;;;;;17.85;36.44;95130.56;10403514;28;2410;-49
2022/12/22 05:59:25;;;;;;;;;;;;;;;17.84;36.41;95129.03;10399066;28;2880;-48
2022/12/22 06:04:25;;;;;;;;;;;;;;;17.84;36.61;95126.41;10396524;28;2856;-47
2022/12/22 06:09:26;;;;;;;;;;;;;;;17.82;36.62;95129.31;10403938;28;2867;-48
2022/12/22 06:14:29;;;;;;;;;;;;;;;17.84;36.61;95123.78;10404426;28;2502;-47
2022/12/22 06:19:29;;;;;;;;;;;;;;;17.90;36.54;95125.31;10402485;28;2855;-46
2022/12/22 06:24:29;;;;;;;;;;;;;;;18.11;36.28;95123.34;10394714;28;2836;-47
2022/12/22 06:29:30;;;;;;;;;;;;;;;18.14;36.21;95117.53;10405597;28;4986;-46
2022/12/22 06:34:30;;;;;;;;;;;;;;;18.16;36.38;95116.22;10404681;28;2847;-46
2022/12/22 06:39:30;;;;;;;;;;;;;;;18.26;36.28;95129.25;10401194;28;2955;-47
2022/12/22 06:44:31;;;;;;;;;;;;;;;18.38;36.07;95134.94;10404316;28;2871;-48
2022/12/22 06:49:31;;;;;;;;;;;;;;;18.46;36.02;95146.75;10399630;28;2827;-48
2022/12/22 06:54:39;;;;;;;;;;;;;;;18.55;35.78;95145.09;10401887;28;2859;-45
2022/12/22 06:59:39;;;;;;;;;;;;;;;18.59;35.78;95146.09;10407522;28;2453;-46
2022/12/22 07:04:40;;;;;;;;;;;;;;;18.64;35.66;95151.31;10393724;28;2856;-45
2022/12/22 07:09:40;;;;;;;;;;;;;;;18.74;35.77;95140.72;10399159;28;2960;-48
2022/12/22 07:14:40;;;;;;;;;;;;;;;18.78;35.71;95133.06;10403388;28;2963;-46
2022/12/22 07:19:40;;;;;;;;;;;;;;;18.84;35.74;95138.00;10395678;28;2935;-47
2022/12/22 07:24:41;;;;;;;;;;;;;;;18.85;35.66;95128.28;10401292;28;2374;-52
2022/12/22 07:29:41;;;;;;;;;;;;;;;18.91;35.86;95121.94;10397528;28;5046;-48
2022/12/22 07:34:41;;;;;;;;;;;;;;;19.01;35.74;95127.09;10397452;28;2466;-46
2022/12/22 07:39:42;;;;;;;;;;;;;;;19.04;35.85;95116.78;10403301;28;3451;-49
2022/12/22 07:44:42;;;;;;;;;;;;;;;19.04;36.36;95124.69;10393308;28;2913;-45
2022/12/22 07:55:01;;;;;;;;;;;;;;;19.20;36.45;95125.31;10395406;28;2956;-46
2022/12/22 08:00:02;;;;;;;;;;;;;;;19.23;36.78;95122.13;10408570;28;3201;-46
2022/12/22 08:05:03;;;;;;;;;;;;;;;19.23;37.12;95135.25;10398197;28;2858;-43
2022/12/22 08:10:04;;;;;;;;;;;;;;;19.28;36.90;95136.00;10392379;28;2390;-45
2022/12/22 08:15:04;;;;;;;;;;;;;;;19.31;37.10;95138.06;10395440;28;2889;-44
2022/12/22 08:20:05;;;;;;;;;;;;;;;19.32;37.08;95131.75;10391334;28;3011;-47
2022/12/22 08:25:05;;;;;;;;;;;;;;;19.33;36.75;95122.03;10396557;28;2426;-47
2022/12/22 08:30:08;;;;;;;;;;;;;;;19.30;36.95;95120.75;10393804;28;4995;-43
2022/12/22 08:35:15;;;;;;;;;;;;;;;19.36;36.99;95124.91;10396543;28;2418;-44
2022/12/22 08:40:20;;;;;;;;;;;;;;;19.39;36.88;95129.56;10392997;28;2477;-44
2022/12/22 08:45:20;;;;;;;;;;;;;;;19.45;36.67;95138.22;10397779;28;3006;-44
2022/12/22 08:50:20;;;;;;;;;;;;;;;19.48;36.62;95143.69;10396501;28;2904;-46
2022/12/22 08:55:20;;;;;;;;;;;;;;;19.51;36.73;95141.56;10397178;28;2965;-44
2022/12/22 09:00:21;;;;;;;;;;;;;;;19.51;36.47;95131.81;10399765;28;2926;-44
2022/12/22 09:05:21;;;;;;;;;;;;;;;19.54;36.34;95138.38;10402706;28;2994;-44
2022/12/22 09:10:21;;;;;;;;;;;;;;;19.64;36.33;95127.72;10398578;28;2954;-47
2022/12/22 09:15:22;;;;;;;;;;;;;;;19.73;36.02;95139.16;10402850;28;3009;-46
2022/12/22 09:20:22;;;;;;;;;;;;;;;19.76;35.98;95149.94;10394715;28;2896;-45
2022/12/22 09:25:22;;;;;;;;;;;;;;;19.81;35.77;95146.44;10401150;28;2430;-47
2022/12/22 09:30:23;;;;;;;;;;;;;;;19.88;35.72;95136.34;10399221;28;4751;-46
2022/12/22 09:35:23;;;;;;;;;;;;;;;19.92;35.46;95137.34;10402424;28;3063;-45
2022/12/22 09:40:24;;;;;;;;;;;;;;;19.95;35.37;95136.78;10407002;28;2918;-48
2022/12/22 09:45:25;;;;;;;;;;;;;;;19.96;35.25;95154.91;10399024;28;2834;-45
2022/12/22 09:50:25;;;;;;;;;;;;;;;20.01;35.12;95149.56;10404185;28;2851;-44
2022/12/22 09:55:29;;;;;;;;;;;;;;;20.00;35.08;95136.72;10405505;28;2897;-46
2022/12/22 10:00:29;;;;;;;;;;;;;;;20.04;35.00;95111.41;10401419;28;2837;-43
2022/12/22 10:05:37;;;;;;;;;;;;;;;19.94;35.08;95108.91;10392690;28;2889;-46
2022/12/22 10:10:37;;;;;;;;;;;;;;;19.91;35.13;95096.31;10401927;28;2923;-46
2022/12/22 10:15:38;;;;;;;;;;;;;;;19.87;35.41;95103.22;10403756;28;2901;-44
2022/12/22 10:20:38;;;;;;;;;;;;;;;19.86;35.27;95101.66;10405877;28;2497;-47
2022/12/22 10:25:40;;;;;;;;;;;;;;;19.87;35.35;95095.31;10411109;28;2944;-43
2022/12/22 10:30:40;;;;;;;;;;;;;;;19.83;35.46;95081.19;10396224;28;5013;-44
2022/12/22 10:35:43;;;;;;;;;;;;;;;19.81;35.58;95072.78;10402779;28;2434;-46
2022/12/22 10:40:45;;;;;;;;;;;;;;;19.77;35.55;95082.31;10402325;28;2886;-44
2022/12/22 10:45:48;;;;;;;;;;;;;;;19.77;35.53;95087.56;10399588;28;2422;-43
2022/12/22 10:50:48;;;;;;;;;;;;;;;19.74;35.49;95083.66;10399897;28;2922;-44
2022/12/22 10:55:58;;;;;;;;;;;;;;;19.73;35.59;95086.59;10406141;28;2976;-44
2022/12/22 11:00:59;;;;;;;;;;;;;;;19.71;35.56;95078.19;10415826;28;2480;-47
2022/12/22 11:06:00;;;;;;;;;;;;;;;19.69;35.59;95088.22;10399404;28;2382;-46
2022/12/22 11:11:02;;;;;;;;;;;;;;;19.71;35.78;95091.34;10417741;28;3019;-47
2022/12/22 11:16:02;;;;;;;;;;;;;;;19.83;35.96;95095.13;10414445;28;2876;-44
2022/12/22 11:21:23;;;;;;;;;;;;;;;19.92;36.22;95101.31;10408700;28;2887;-44
2022/12/22 11:26:43;;;;;;;;;;;;;;;20.04;36.13;95095.63;10395216;28;5070;-43
2022/12/22 11:31:52;;;;;;;;;;;;;;;20.16;35.81;95088.84;10403968;28;2943;-42
2022/12/22 11:36:58;;;;;;;;;;;;;;;20.20;35.54;95075.94;10397685;28;3170;-43
2022/12/22 11:41:58;;;;;;;;;;;;;;;20.17;34.73;95085.13;10396626;28;2921;-45
2022/12/22 11:47:01;;;;;;;;;;;;;;;20.21;34.26;95080.94;10400330;28;2421;-44
2022/12/22 11:52:33;;;;;;;;;;;;;;;20.25;34.33;95060.06;10409872;28;2971;-46
2022/12/22 11:57:55;;;;;;;;;;;;;;;20.30;33.93;95056.59;10397461;28;2831;-49
2022/12/22 12:02:58;;;;;;;;;;;;;;;20.34;34.03;95036.50;10394728;28;2949;-45
2022/12/22 12:08:18;;;;;;;;;;;;;;;20.37;34.18;95028.81;10398504;28;2866;-44
2022/12/22 12:13:18;;;;;;;;;;;;;;;20.40;34.08;95036.13;10399078;28;2762;-43
2022/12/22 12:18:32;;;;;;;;;;;;;;;20.41;34.05;95029.78;10388012;28;2421;-42
2022/12/22 12:23:36;;;;;;;;;;;;;;;20.42;33.52;95026.09;10394792;28;2844;-41
2022/12/22 12:28:39;;;;;;;;;;;;;;;20.46;33.77;95029.72;10402855;28;4970;-42
2022/12/22 12:33:47;;;;;;;;;;;;;;;20.46;33.63;95023.66;10399154;28;2386;-42
2022/12/22 12:38:50;;;;;;;;;;;;;;;20.44;33.70;95018.69;10394222;28;2967;-42
2022/12/22 12:43:52;;;;;;;;;;;;;;;20.47;33.64;95026.00;10398851;28;2457;-49
2022/12/22 12:48:55;;;;;;;;;;;;;;;20.51;33.28;95034.09;10394727;28;2433;-49
2022/12/22 12:54:20;;;;;;;;;;;;;;;20.46;33.07;95021.81;10399499;28;2868;-43
2022/12/22 12:59:38;;;;;;;;;;;;;;;20.52;33.26;95020.66;10392651;28;2446;-42
2022/12/22 13:04:57;;;;;;;;;;;;;;;20.54;33.45;95021.16;10396622;28;3030;-42
2022/12/22 13:10:07;;;;;;;;;;;;;;;20.59;33.34;95022.88;10395640;28;2393;-46
2022/12/22 13:15:26;;;;;;;;;;;;;;;20.60;33.29;95032.38;10396642;28;2878;-44
2022/12/22 13:20:28;;;;;;;;;;;;;;;20.59;33.60;95033.41;10393924;28;2876;-44
2022/12/22 13:25:38;;;;;;;;;;;;;;;20.58;33.20;95037.94;10390859;28;2914;-47
2022/12/22 13:30:39;;;;;;;;;;;;;;;20.59;33.34;95044.75;10392762;28;4871;-42
2022/12/22 13:35:39;;;;;;;;;;;;;;;20.60;33.20;95046.31;10395722;28;2721;-41
2022/12/22 13:40:48;;;;;;;;;;;;;;;20.70;33.53;95053.25;10389958;28;2905;-41
2022/12/22 13:45:57;;;;;;;;;;;;;;;20.68;33.10;95052.75;10401816;28;3023;-42
2022/12/22 13:51:01;;;;;;;;;;;;;;;20.65;33.50;95062.00;10400281;28;2836;-42
2022/12/22 13:56:13;;;;;;;;;;;;;;;20.67;33.46;95051.97;10401740;28;2917;-42
2022/12/22 14:01:15;;;;;;;;;;;;;;;20.73;33.44;95047.41;10400001;28;2817;-43
2022/12/22 14:06:19;;;;;;;;;;;;;;;20.70;32.98;95054.03;10403951;28;2929;-47
2022/12/22 14:11:24;;;;;;;;;;;;;;;20.72;33.09;95051.09;10403857;28;2410;-43
2022/12/22 14:16:24;;;;;;;;;;;;;;;20.70;33.22;95064.56;10405243;28;2867;-43
2022/12/22 14:21:24;;;;;;;;;;;;;;;20.69;32.95;95059.59;10385809;28;2378;-44
2022/12/22 14:26:25;;;;;;;;;;;;;;;20.67;32.75;95062.50;10392686;28;4911;-44
2022/12/22 14:31:25;;;;;;;;;;;;;;;20.67;32.69;95082.81;10411805;28;2948;-43
2022/12/22 14:36:26;;;;;;;;;;;;;;;20.64;32.37;95091.28;10394631;28;2887;-46
2022/12/22 14:41:43;;;;;;;;;;;;;;;20.65;32.82;95082.31;10391683;28;2385;-46
2022/12/22 14:46:43;;;;;;;;;;;;;;;20.64;32.76;95097.34;10394533;28;2829;-44
2022/12/22 14:51:56;;;;;;;;;;;;;;;20.63;32.56;95101.03;10393242;28;2422;-46
2022/12/22 14:56:59;;;;;;;;;;;;;;;20.61;32.36;95102.41;10409108;28;2438;-44
2022/12/22 15:02:16;;;;;;;;;;;;;;;20.52;32.79;95117.28;10396771;28;2914;-45
2022/12/22 15:07:17;;;;;;;;;;;;;;;20.53;32.77;95106.47;10404210;28;2383;-44
2022/12/22 15:12:18;;;;;;;;;;;;;;;20.52;32.64;95115.44;10388325;28;2957;-44
2022/12/22 15:17:19;;;;;;;;;;;;;;;20.52;32.99;95125.97;10395951;28;2343;-44
2022/12/22 15:22:20;;;;;;;;;;;;;;;20.51;32.56;95127.03;10395860;28;2394;-44
2022/12/22 15:27:21;;;;;;;;;;;;;;;20.53;32.67;95132.00;10392537;28;5011;-44
2022/12/22 15:32:28;;;;;;;;;;;;;;;20.54;33.25;95144.09;10388615;28;2805;-44
2022/12/22 15:37:28;;;;;;;;;;;;;;;20.47;33.71;95151.56;10379014;28;2882;-45
2022/12/22 15:42:29;;;;;;;;;;;;;;;20.40;33.69;95148.53;10397459;28;2383;-47
2022/12/22 15:47:31;;;;;;;;;;;;;;;20.30;33.77;95146.81;10399179;28;2379;-46
2022/12/22 15:52:31;;;;;;;;;;;;;;;20.23;33.42;95159.56;10397912;28;2928;-44
2022/12/22 15:57:32;;;;;;;;;;;;;;;20.26;34.34;95151.09;10393925;28;3028;-45
2022/12/22 16:02:32;;;;;;;;;;;;;;;20.29;34.00;95150.53;10394404;28;2365;-45
2022/12/22 16:07:32;;;;;;;;;;;;;;;20.27;33.73;95160.56;10394049;28;2906;-46
2022/12/22 16:12:33;;;;;;;;;;;;;;;20.22;33.95;95144.84;10391648;28;2882;-46
2022/12/22 16:17:33;;;;;;;;;;;;;;;20.31;34.89;95155.50;10387588;28;2906;-47
2022/12/22 16:22:34;;;;;;;;;;;;;;;20.32;34.06;95160.47;10385104;28;2883;-47
2022/12/22 16:27:34;;;;;;;;;;;;;;;20.15;33.73;95153.06;10384961;28;4935;-46
2022/12/22 16:32:41;;;;;;;;;;;;;;;20.12;33.47;95158.91;10398011;28;2848;-48
2022/12/22 16:37:41;;;;;;;;;;;;;;;20.06;33.66;95164.50;10398129;28;2418;-50
2022/12/22 16:43:07;;;;;;;;;;;;;;;20.04;33.75;95164.00;10394547;28;2943;-45
2022/12/22 16:48:09;;;;;;;;;;;;;;;20.05;33.78;95163.72;10392950;28;2438;-46
2022/12/22 16:53:09;;;;;;;;;;;;;;;20.09;34.10;95169.22;10401288;28;2508;-46
2022/12/22 16:58:09;;;;;;;;;;;;;;;20.15;33.97;95176.75;10394562;28;2896;-46
2022/12/22 17:03:14;;;;;;;;;;;;;;;20.13;33.81;95178.13;10390218;28;2927;-44
2022/12/22 17:08:21;;;;;;;;;;;;;;;20.24;34.31;95185.59;10395137;28;2871;-43
2022/12/22 17:13:21;;;;;;;;;;;;;;;20.36;34.98;95190.44;10386069;28;2901;-47
2022/12/22 17:18:23;;;;;;;;;;;;;;;20.15;34.48;95195.16;10386255;28;2892;-45
2022/12/22 17:23:33;;;;;;;;;;;;;;;20.08;34.62;95188.69;10394047;28;1973;-46
2022/12/22 17:28:34;;;;;;;;;;;;;;;20.08;34.80;95199.22;10405967;28;4882;-47
2022/12/22 17:33:34;;;;;;;;;;;;;;;20.10;35.35;95199.72;10420154;28;1934;-45
2022/12/22 17:38:35;;;;;;;;;;;;;;;20.07;35.46;95187.16;10405405;28;2117;-47
2022/12/22 17:43:35;;;;;;;;;;;;;;;20.03;35.72;95201.94;10403494;28;2223;-44
2022/12/22 17:48:35;;;;;;;;;;;;;;;20.02;35.92;95206.41;10401633;28;1925;-45
2022/12/22 17:53:35;;;;;;;;;;;;;;;19.93;36.23;95208.09;10407409;28;1788;-45
2022/12/22 17:58:36;;;;;;;;;;;;;;;19.86;36.34;95201.59;10411680;28;1988;-46
2022/12/22 18:03:36;;;;;;;;;;;;;;;19.84;36.49;95198.47;10398442;28;1910;-46
2022/12/22 18:08:36;;;;;;;;;;;;;;;19.81;36.33;95199.81;10402027;28;2050;-45
2022/12/22 18:13:37;;;;;;;;;;;;;;;19.72;36.52;95195.47;10398939;28;1977;-44
2022/12/22 18:18:37;;;;;;;;;;;;;;;19.68;36.88;95181.31;10393812;28;1913;-49
2022/12/22 18:23:37;;;;;;;;;;;;;;;19.60;36.90;95182.72;10394325;28;2025;-47
2022/12/22 18:28:44;;;;;;;;;;;;;;;19.61;36.87;95181.66;10402372;28;4970;-45
2022/12/22 18:33:44;;;;;;;;;;;;;;;19.58;36.97;95176.19;10404860;28;2120;-45
2022/12/22 18:38:45;;;;;;;;;;;;;;;19.56;36.84;95178.31;10398555;28;2069;-46
2022/12/22 18:43:45;;;;;;;;;;;;;;;19.49;37.06;95176.00;10411628;28;2013;-46
2022/12/22 18:48:46;;;;;;;;;;;;;;;19.45;37.02;95175.78;10406485;28;2061;-46
2022/12/22 18:53:47;;;;;;;;;;;;;;;19.41;37.03;95169.50;10403405;28;2191;-49
2022/12/22 18:58:47;;;;;;;;;;;;;;;19.41;36.98;95159.00;10407818;28;1982;-46
2022/12/22 19:03:54;;;;;;;;;;;;;;;19.38;37.14;95150.91;10403504;28;1965;-46
2022/12/22 19:08:54;;;;;;;;;;;;;;;19.31;37.30;95153.81;10401969;28;2038;-45
2022/12/22 19:13:54;;;;;;;;;;;;;;;19.32;37.19;95144.88;10403102;28;1961;-48
2022/12/22 19:18:56;;;;;;;;;;;;;;;19.29;37.16;95149.91;10395963;28;1965;-47
2022/12/22 19:23:56;;;;;;;;;;;;;;;19.26;37.18;95145.22;10399909;28;2070;-46
2022/12/22 19:28:59;;;;;;;;;;;;;;;19.18;37.29;95145.84;10399200;28;4951;-44
2022/12/22 19:34:01;;;;;;;;;;;;;;;19.18;37.63;95133.50;10403111;28;2175;-46
2022/12/22 19:39:02;;;;;;;;;;;;;;;19.17;37.44;95129.28;10402101;28;2018;-48
2022/12/22 19:44:02;;;;;;;;;;;;;;;19.14;37.40;95124.59;10399188;28;2046;-45
2022/12/22 19:49:03;;;;;;;;;;;;;;;19.10;37.41;95118.31;10398523;28;2080;-46
2022/12/22 19:54:03;;;;;;;;;;;;;;;19.07;37.66;95116.25;10401440;28;2074;-49
2022/12/22 19:59:11;;;;;;;;;;;;;;;19.06;37.43;95106.03;10403831;28;2081;-49
2022/12/22 20:04:11;;;;;;;;;;;;;;;19.08;37.36;95104.66;10413887;28;2066;-46
2022/12/22 20:09:11;;;;;;;;;;;;;;;19.02;37.47;95100.53;10391603;28;2156;-49
2022/12/22 20:14:18;;;;;;;;;;;;;;;19.00;37.32;95110.53;10390296;28;2143;-47
2022/12/22 20:19:18;;;;;;;;;;;;;;;18.95;37.51;95104.56;10390300;28;1978;-44
2022/12/22 20:24:19;;;;;;;;;;;;;;;18.92;37.52;95094.63;10390655;28;2084;-44
2022/12/22 20:29:19;;;;;;;;;;;;;;;18.91;37.44;95095.66;10394774;28;4986;-45
2022/12/22 20:34:20;;;;;;;;;;;;;;;18.89;37.50;95085.47;10388131;28;2008;-46
2022/12/22 20:39:20;;;;;;;;;;;;;;;18.89;37.60;95077.56;10401087;28;1966;-44
2022/12/22 20:44:21;;;;;;;;;;;;;;;18.84;37.41;95064.50;10386972;28;2073;-45
2022/12/22 20:49:22;;;;;;;;;;;;;;;18.80;37.52;95066.09;10398055;28;2088;-45
2022/12/22 20:54:22;;;;;;;;;;;;;;;18.77;37.53;95058.81;10394939;28;1984;-47
2022/12/22 20:59:22;;;;;;;;;;;;;;;18.81;37.44;95059.03;10389009;28;2097;-44
2022/12/22 21:04:25;;;;;;;;;;;;;;;18.81;37.35;95045.88;10399890;28;1986;-45
2022/12/22 21:09:26;;;;;;;;;;;;;;;18.78;37.37;95051.69;10404559;28;2049;-46
2022/12/22 21:14:26;;;;;;;;;;;;;;;18.78;37.42;95039.34;10399326;28;2081;-46
2022/12/22 21:19:27;;;;;;;;;;;;;;;18.75;37.50;95054.88;10399035;28;2062;-47
2022/12/22 21:24:27;;;;;;;;;;;;;;;18.69;37.57;95047.03;10403707;28;2046;-47
2022/12/22 21:29:27;;;;;;;;;;;;;;;18.75;37.28;95044.38;10401290;28;4935;-46
2022/12/22 21:34:28;;;;;;;;;;;;;;;18.74;37.41;95048.84;10403278;28;2017;-47
2022/12/22 21:39:30;;;;;;;;;;;;;;;18.70;37.49;95034.72;10400283;28;1993;-44
2022/12/22 21:44:31;;;;;;;;;;;;;;;18.69;37.45;95046.28;10398816;28;2020;-44
2022/12/22 21:49:31;;;;;;;;;;;;;;;18.64;37.54;95041.06;10404347;28;1882;-45
2022/12/22 21:54:32;;;;;;;;;;;;;;;18.66;37.40;95031.88;10398080;28;2101;-48
2022/12/22 21:59:32;;;;;;;;;;;;;;;18.64;37.44;95033.19;10399696;28;1890;-45
2022/12/22 22:04:32;;;;;;;;;;;;;;;18.60;37.53;95022.47;10401205;28;2058;-46
2022/12/22 22:09:32;;;;;;;;;;;;;;;18.60;37.46;95021.69;10389155;28;1998;-46
2022/12/22 22:14:33;;;;;;;;;;;;;;;18.60;37.46;95001.47;10390308;28;2024;-47
2022/12/22 22:19:33;;;;;;;;;;;;;;;18.58;37.49;95002.81;10395011;28;2029;-45
2022/12/22 22:24:33;;;;;;;;;;;;;;;18.58;37.79;94989.69;10400090;28;1981;-45
2022/12/22 22:29:34;;;;;;;;;;;;;;;18.50;37.70;94969.31;10402171;28;4904;-45
2022/12/22 22:34:34;;;;;;;;;;;;;;;18.54;37.54;94959.81;10401857;28;1914;-45
2022/12/22 22:39:34;;;;;;;;;;;;;;;18.56;37.57;94952.44;10400398;28;2090;-45
2022/12/22 22:44:34;;;;;;;;;;;;;;;18.57;37.51;94948.75;10401321;28;1971;-45
2022/12/22 22:49:35;;;;;;;;;;;;;;;18.56;37.44;94941.94;10407950;28;1962;-46
2022/12/22 22:54:35;;;;;;;;;;;;;;;18.54;37.53;94930.94;10402530;28;1965;-46
2022/12/22 22:59:35;;;;;;;;;;;;;;;18.55;37.50;94924.63;10405047;28;2081;-45
2022/12/22 23:04:36;;;;;;;;;;;;;;;18.52;37.59;94919.94;10404923;28;1973;-44
2022/12/22 23:09:36;;;;;;;;;;;;;;;18.47;37.57;94912.13;10404452;28;2046;-45
2022/12/22 23:14:36;;;;;;;;;;;;;;;18.43;37.57;94888.28;10402475;28;1954;-48
2022/12/22 23:19:37;;;;;;;;;;;;;;;18.49;37.42;94881.91;10401590;28;2082;-46
2022/12/22 23:24:37;;;;;;;;;;;;;;;18.46;37.57;94884.31;10400898;28;1967;-47
2022/12/22 23:29:37;;;;;;;;;;;;;;;18.46;37.47;94876.47;10397298;28;5220;-48
2022/12/22 23:34:38;;;;;;;;;;;;;;;18.48;37.40;94887.44;10397684;28;2154;-47
2022/12/22 23:39:38;;;;;;;;;;;;;;;18.45;37.48;94890.63;10398819;28;2073;-47
2022/12/22 23:44:39;;;;;;;;;;;;;;;18.45;37.44;94882.75;10403244;28;2069;-45
2022/12/22 23:49:39;;;;;;;;;;;;;;;18.42;37.72;94868.31;10395270;28;2050;-46
2022/12/22 23:54:39;;;;;;;;;;;;;;;18.41;37.58;94869.38;10397981;28;1906;-48
2022/12/22 23:59:39;;;;;;;;;;;;;;;18.42;37.45;94884.06;10399903;28;2255;-45
